createdAt,value
2019-06-26T00:00:43.169Z,71.73
2019-06-26T00:01:43.145Z,71.63
2019-06-26T00:02:43.123Z,71.43
2019-06-26T00:03:43.117Z,71.53
2019-06-26T00:04:43.103Z,71.53
2019-06-26T00:05:43.101Z,72.56
2019-06-26T00:06:43.094Z,72.33
2019-06-26T00:07:43.073Z,72.47
2019-06-26T00:08:43.058Z,71.83
2019-06-26T00:09:43.047Z,71.83
2019-06-26T00:10:43.067Z,72.13
2019-06-26T00:11:43.034Z,72.36
2019-06-26T00:12:43.035Z,72.36
2019-06-26T00:13:43.033Z,72.77
2019-06-26T00:14:42.995Z,72.66
2019-06-26T00:15:42.986Z,72.97
2019-06-26T00:16:42.973Z,72.97
2019-06-26T00:17:42.967Z,73.27
2019-06-26T00:18:42.947Z,73.30
2019-06-26T00:19:42.952Z,73.36
2019-06-26T00:20:42.936Z,72.47
2019-06-26T00:21:42.914Z,72.90
2019-06-26T00:22:42.905Z,73.40
2019-06-26T00:23:42.929Z,73.20
2019-06-26T00:24:42.878Z,73.20
2019-06-26T00:25:42.867Z,73.20
2019-06-26T00:26:42.857Z,73.30
2019-06-26T00:27:42.848Z,73.50
2019-06-26T00:28:42.839Z,73.40
2019-06-26T00:29:42.840Z,73.60
2019-06-26T00:30:42.820Z,74.01
2019-06-26T00:31:42.809Z,74.44
2019-06-26T00:32:42.809Z,74.64
2019-06-26T00:33:42.784Z,74.54
2019-06-26T00:34:42.779Z,74.74
2019-06-26T00:35:42.764Z,74.74
2019-06-26T00:36:42.749Z,74.44
2019-06-26T00:37:42.789Z,74.30
2019-06-26T00:38:42.727Z,74.34
2019-06-26T00:39:42.728Z,74.74
2019-06-26T00:40:42.700Z,74.74
2019-06-26T00:41:42.689Z,74.74
2019-06-26T00:42:42.677Z,74.74
2019-06-26T00:43:43.015Z,75.04
2019-06-26T00:44:42.674Z,74.94
2019-06-26T00:45:42.651Z,74.94
2019-06-26T00:46:42.652Z,74.84
2019-06-26T00:47:42.626Z,75.14
2019-06-26T00:48:42.611Z,74.98
2019-06-26T00:49:42.630Z,74.74
2019-06-26T00:50:42.602Z,74.98
2019-06-26T00:51:42.587Z,75.18
2019-06-26T00:52:42.575Z,76.28
2019-06-26T00:53:42.556Z,75.58
2019-06-26T00:54:42.559Z,76.18
2019-06-26T00:55:42.559Z,76.12
2019-06-26T00:56:42.522Z,76.28
2019-06-26T00:57:42.516Z,76.32
2019-06-26T00:58:42.504Z,75.71
2019-06-26T00:59:42.499Z,75.92
2019-06-26T01:00:42.485Z,76.12
2019-06-26T01:01:42.490Z,76.62
2019-06-26T01:02:42.467Z,76.62
2019-06-26T01:03:42.444Z,76.82
2019-06-26T01:04:42.439Z,77.62
2019-06-26T01:05:42.426Z,77.62
2019-06-26T01:06:42.482Z,77.62
2019-06-26T01:07:42.402Z,77.02
2019-06-26T01:08:42.393Z,77.22
2019-06-26T01:09:42.386Z,77.12
2019-06-26T01:10:42.369Z,77.26
2019-06-26T01:11:42.365Z,77.86
2019-06-26T01:12:42.376Z,77.72
2019-06-26T01:13:57.117Z,77.76
2019-06-26T01:14:43.322Z,77.83
2019-06-26T01:15:42.312Z,77.62
2019-06-26T01:16:42.299Z,77.62
2019-06-26T01:17:42.302Z,77.83
2019-06-26T01:18:42.283Z,77.72
2019-06-26T01:19:42.267Z,77.83
2019-06-26T01:20:42.257Z,77.52
2019-06-26T01:21:42.243Z,77.62
2019-06-26T01:22:42.259Z,77.96
2019-06-26T01:23:42.223Z,77.92
2019-06-26T01:24:42.220Z,78.27
2019-06-26T01:25:42.212Z,77.66
2019-06-26T01:26:42.193Z,78.22
2019-06-26T01:27:42.184Z,78.66
2019-06-26T01:28:42.180Z,78.97
2019-06-26T01:29:42.160Z,78.97
2019-06-26T01:30:42.145Z,78.97
2019-06-26T01:31:42.132Z,78.93
2019-06-26T01:32:42.131Z,78.86
2019-06-26T01:33:42.111Z,78.97
2019-06-26T01:34:42.104Z,79.06
2019-06-26T01:35:42.123Z,78.97
2019-06-26T01:36:42.085Z,78.56
2019-06-26T01:37:42.067Z,78.97
2019-06-26T01:38:42.056Z,78.97
2019-06-26T01:39:42.043Z,79.17
2019-06-26T01:40:42.038Z,79.47
2019-06-26T01:41:42.023Z,79.27
2019-06-26T01:42:42.018Z,79.27
2019-06-26T01:43:42.003Z,79.57
2019-06-26T01:44:41.997Z,79.47
2019-06-26T01:45:41.979Z,79.27
2019-06-26T01:46:41.967Z,79.47
2019-06-26T01:47:41.965Z,79.27
2019-06-26T01:48:41.955Z,79.67
2019-06-26T01:49:41.941Z,79.37
2019-06-26T01:50:41.925Z,79.37
2019-06-26T01:51:41.909Z,79.27
2019-06-26T01:52:41.899Z,79.37
2019-06-26T01:53:41.916Z,79.37
2019-06-26T01:54:41.881Z,79.47
2019-06-26T01:55:41.869Z,79.71
2019-06-26T01:56:41.852Z,79.97
2019-06-26T01:57:41.849Z,80.17
2019-06-26T01:58:41.856Z,79.87
2019-06-26T01:59:41.858Z,79.77
2019-06-26T02:00:41.813Z,79.67
2019-06-26T02:01:41.797Z,79.97
2019-06-26T02:02:41.788Z,79.97
2019-06-26T02:03:41.779Z,80.17
2019-06-26T02:04:41.765Z,79.97
2019-06-26T02:05:41.792Z,79.97
2019-06-26T02:06:41.744Z,80.37
2019-06-26T02:07:41.759Z,79.97
2019-06-26T02:08:41.726Z,80.07
2019-06-26T02:09:41.709Z,79.97
2019-06-26T02:10:41.695Z,80.07
2019-06-26T02:11:41.705Z,80.07
2019-06-26T02:12:41.722Z,79.77
2019-06-26T02:13:41.667Z,80.17
2019-06-26T02:14:41.657Z,80.17
2019-06-26T02:15:41.647Z,80.17
2019-06-26T02:16:41.640Z,80.17
2019-06-26T02:17:41.633Z,80.91
2019-06-26T02:18:41.610Z,81.32
2019-06-26T02:19:41.594Z,81.18
2019-06-26T02:20:41.605Z,80.71
2019-06-26T02:21:41.575Z,81.01
2019-06-26T02:22:41.565Z,81.62
2019-06-26T02:23:41.554Z,81.52
2019-06-26T02:24:41.562Z,80.91
2019-06-26T02:25:41.526Z,81.96
2019-06-26T02:26:41.533Z,81.62
2019-06-26T02:27:41.512Z,81.56
2019-06-26T02:28:41.498Z,81.65
2019-06-26T02:29:41.486Z,81.46
2019-06-26T02:30:41.476Z,81.72
2019-06-26T02:31:41.467Z,81.76
2019-06-26T02:32:41.488Z,82.06
2019-06-26T02:33:41.446Z,82.36
2019-06-26T02:34:41.439Z,82.46
2019-06-26T02:35:41.419Z,82.76
2019-06-26T02:36:41.408Z,82.26
2019-06-26T02:37:41.404Z,82.76
2019-06-26T02:38:41.401Z,82.76
2019-06-26T02:39:41.368Z,82.76
2019-06-26T02:40:41.367Z,82.76
2019-06-26T02:41:41.355Z,82.62
2019-06-26T02:42:41.347Z,82.56
2019-06-26T02:43:41.361Z,82.66
2019-06-26T02:44:52.902Z,82.46
2019-06-26T02:45:42.302Z,82.46
2019-06-26T02:46:41.299Z,82.56
2019-06-26T02:47:41.302Z,82.36
2019-06-26T02:48:41.274Z,82.86
2019-06-26T02:49:41.282Z,82.56
2019-06-26T02:50:41.247Z,82.86
2019-06-26T02:51:41.240Z,82.86
2019-06-26T02:52:41.227Z,82.60
2019-06-26T02:53:41.211Z,82.97
2019-06-26T02:54:41.242Z,83.17
2019-06-26T02:55:41.202Z,83.57
2019-06-26T02:56:41.198Z,83.17
2019-06-26T02:57:41.196Z,83.57
2019-06-26T02:58:41.163Z,83.76
2019-06-26T02:59:41.159Z,83.57
2019-06-26T03:00:41.149Z,83.17
2019-06-26T03:01:41.128Z,83.57
2019-06-26T03:02:41.142Z,83.67
2019-06-26T03:03:41.102Z,83.76
2019-06-26T03:04:41.087Z,83.97
2019-06-26T03:05:41.092Z,84.07
2019-06-26T03:06:41.066Z,83.57
2019-06-26T03:07:41.056Z,83.67
2019-06-26T03:08:41.047Z,83.61
2019-06-26T03:09:41.036Z,83.57
2019-06-26T03:10:41.029Z,83.57
2019-06-26T03:11:41.014Z,83.76
2019-06-26T03:12:40.999Z,83.87
2019-06-26T03:13:41.008Z,83.87
2019-06-26T03:14:40.985Z,83.57
2019-06-26T03:15:41.011Z,84.17
2019-06-26T03:16:40.958Z,83.97
2019-06-26T03:17:54.182Z,84.47
2019-06-26T03:18:41.931Z,84.23
2019-06-26T03:19:40.925Z,84.33
2019-06-26T03:20:40.907Z,84.33
2019-06-26T03:21:40.902Z,84.23
2019-06-26T03:22:40.884Z,84.53
2019-06-26T03:23:40.908Z,83.83
2019-06-26T03:24:40.865Z,83.53
2019-06-26T03:25:40.857Z,83.73
2019-06-26T03:26:40.862Z,83.49
2019-06-26T03:27:40.839Z,83.33
2019-06-26T03:28:40.818Z,83.29
2019-06-26T03:29:40.806Z,83.43
2019-06-26T03:30:40.812Z,83.63
2019-06-26T03:31:40.815Z,83.59
2019-06-26T03:32:40.787Z,83.59
2019-06-26T03:33:40.768Z,83.69
2019-06-26T03:34:40.758Z,83.83
2019-06-26T03:35:41.032Z,83.59
2019-06-26T03:36:40.763Z,83.89
2019-06-26T03:37:40.726Z,83.93
2019-06-26T03:38:40.707Z,83.69
2019-06-26T03:39:40.702Z,83.79
2019-06-26T03:40:40.683Z,84.43
2019-06-26T03:41:40.676Z,84.09
2019-06-26T03:42:40.675Z,83.83
2019-06-26T03:43:40.650Z,83.79
2019-06-26T03:44:40.644Z,83.69
2019-06-26T03:45:40.642Z,83.89
2019-06-26T03:46:40.625Z,84.29
2019-06-26T03:47:40.674Z,83.93
2019-06-26T03:48:40.594Z,84.19
2019-06-26T03:49:40.588Z,84.09
2019-06-26T03:50:40.585Z,84.29
2019-06-26T03:51:40.627Z,83.99
2019-06-26T03:52:40.555Z,83.89
2019-06-26T03:53:40.567Z,84.19
2019-06-26T03:54:40.527Z,84.29
2019-06-26T03:55:40.521Z,84.15
2019-06-26T03:56:40.502Z,84.15
2019-06-26T03:57:40.548Z,84.19
2019-06-26T03:58:40.546Z,84.25
2019-06-26T03:59:40.469Z,84.25
2019-06-26T04:00:40.461Z,84.55
2019-06-26T04:01:40.445Z,84.55
2019-06-26T04:02:40.453Z,83.85
2019-06-26T04:03:40.424Z,84.55
2019-06-26T04:04:40.430Z,84.55
2019-06-26T04:05:40.404Z,84.55
2019-06-26T04:06:40.402Z,84.55
2019-06-26T04:07:40.380Z,84.31
2019-06-26T04:08:40.367Z,84.21
2019-06-26T04:09:40.374Z,84.11
2019-06-26T04:10:43.250Z,84.41
2019-06-26T04:11:40.336Z,83.21
2019-06-26T04:12:40.325Z,83.61
2019-06-26T04:13:40.323Z,83.71
2019-06-26T04:14:40.314Z,83.51
2019-06-26T04:15:42.378Z,83.81
2019-06-26T04:16:40.288Z,83.67
2019-06-26T04:17:40.274Z,83.17
2019-06-26T04:18:40.261Z,83.17
2019-06-26T04:19:40.299Z,83.17
2019-06-26T04:20:40.242Z,83.37
2019-06-26T04:21:40.239Z,82.82
2019-06-26T04:22:40.216Z,83.67
2019-06-26T04:23:40.205Z,83.13
2019-06-26T04:24:40.209Z,83.13
2019-06-26T04:25:40.202Z,83.03
2019-06-26T04:26:40.170Z,83.63
2019-06-26T04:27:40.166Z,83.33
2019-06-26T04:28:40.153Z,83.23
2019-06-26T04:29:40.133Z,83.43
2019-06-26T04:30:40.155Z,83.13
2019-06-26T04:31:40.112Z,82.89
2019-06-26T04:32:40.102Z,82.29
2019-06-26T04:33:40.093Z,82.55
2019-06-26T04:34:40.079Z,81.95
2019-06-26T04:35:40.082Z,82.15
2019-06-26T04:36:40.060Z,81.95
2019-06-26T04:37:40.073Z,82.01
2019-06-26T04:38:40.062Z,81.51
2019-06-26T04:39:40.030Z,81.21
2019-06-26T04:40:40.025Z,81.51
2019-06-26T04:41:40.022Z,81.37
2019-06-26T04:42:39.993Z,81.27
2019-06-26T04:43:39.982Z,80.87
2019-06-26T04:44:39.972Z,81.07
2019-06-26T04:45:39.958Z,80.97
2019-06-26T04:46:39.953Z,80.63
2019-06-26T04:47:39.945Z,80.83
2019-06-26T04:48:39.927Z,80.23
2019-06-26T04:49:39.911Z,80.03
2019-06-26T04:50:39.909Z,79.49
2019-06-26T04:51:39.889Z,78.89
2019-06-26T04:52:39.922Z,78.89
2019-06-26T04:53:39.878Z,78.45
2019-06-26T04:54:39.861Z,78.75
2019-06-26T04:55:39.852Z,77.62
2019-06-26T04:56:39.836Z,77.32
2019-06-26T04:57:39.827Z,77.32
2019-06-26T04:58:39.834Z,77.22
2019-06-26T04:59:39.805Z,77.42
2019-06-26T05:00:39.795Z,76.68
2019-06-26T05:01:39.791Z,76.92
2019-06-26T05:02:39.777Z,76.18
2019-06-26T05:03:39.784Z,76.98
2019-06-26T05:04:39.751Z,76.54
2019-06-26T05:05:40.301Z,76.04
2019-06-26T05:06:39.726Z,76.15
2019-06-26T05:07:39.718Z,75.35
2019-06-26T05:08:39.736Z,75.15
2019-06-26T05:09:39.697Z,75.51
2019-06-26T05:10:39.726Z,75.61
2019-06-26T05:11:39.672Z,75.31
2019-06-26T05:12:39.665Z,74.91
2019-06-26T05:13:39.645Z,75.11
2019-06-26T05:14:39.681Z,74.68
2019-06-26T05:15:39.626Z,74.71
2019-06-26T05:16:39.623Z,75.71
2019-06-26T05:17:39.602Z,74.68
2019-06-26T05:18:39.588Z,74.38
2019-06-26T05:19:39.594Z,74.58
2019-06-26T05:20:39.569Z,74.38
2019-06-26T05:21:39.553Z,74.24
2019-06-26T05:22:39.572Z,74.04
2019-06-26T05:23:39.550Z,73.65
2019-06-26T05:24:39.524Z,73.25
2019-06-26T05:25:39.517Z,73.14
2019-06-26T05:26:39.524Z,72.71
2019-06-26T05:27:39.490Z,72.71
2019-06-26T05:28:39.480Z,72.81
2019-06-26T05:29:39.474Z,72.52
2019-06-26T05:30:39.609Z,72.52
2019-06-26T05:31:39.455Z,72.52
2019-06-26T05:32:39.438Z,72.88
2019-06-26T05:33:39.436Z,72.48
2019-06-26T05:34:39.412Z,72.38
2019-06-26T05:35:39.439Z,72.38
2019-06-26T05:36:39.419Z,72.18
2019-06-26T05:37:39.380Z,72.38
2019-06-26T05:38:39.373Z,71.78
2019-06-26T05:39:39.366Z,71.78
2019-06-26T05:40:39.350Z,71.65
2019-06-26T05:41:39.370Z,71.15
2019-06-26T05:42:39.337Z,71.05
2019-06-26T05:43:39.354Z,70.95
2019-06-26T05:44:39.299Z,71.25
2019-06-26T05:45:39.295Z,70.72
2019-06-26T05:46:39.303Z,70.52
2019-06-26T05:47:39.277Z,70.42
2019-06-26T05:48:39.254Z,70.72
2019-06-26T05:49:39.243Z,70.62
2019-06-26T05:50:39.242Z,70.52
2019-06-26T05:51:39.227Z,70.42
2019-06-26T05:52:42.441Z,69.49
2019-06-26T05:53:39.200Z,69.59
2019-06-26T05:54:39.194Z,70.29
2019-06-26T05:55:39.177Z,70.29
2019-06-26T05:56:39.166Z,70.06
2019-06-26T05:57:41.817Z,70.55
2019-06-26T05:58:39.219Z,70.36
2019-06-26T05:59:39.160Z,70.25
2019-06-26T06:00:39.130Z,70.06
2019-06-26T06:01:39.145Z,70.25
2019-06-26T06:02:39.099Z,69.53
2019-06-26T06:03:39.101Z,70.22
2019-06-26T06:04:39.087Z,68.33
2019-06-26T06:05:39.072Z,68.53
2019-06-26T06:06:42.115Z,67.44
2019-06-26T06:07:39.044Z,67.41
2019-06-26T06:08:39.050Z,67.11
2019-06-26T06:09:39.028Z,66.88
2019-06-26T06:10:39.061Z,67.38
2019-06-26T06:11:39.003Z,67.47
2019-06-26T06:12:39.019Z,67.38
2019-06-26T06:13:38.982Z,67.38
2019-06-26T06:14:38.981Z,67.87
2019-06-26T06:15:38.989Z,66.98
2019-06-26T06:16:47.508Z,67.44
2019-06-26T06:17:39.947Z,67.54
2019-06-26T06:18:38.938Z,67.34
2019-06-26T06:19:38.923Z,66.94
2019-06-26T06:20:38.978Z,66.65
2019-06-26T06:21:38.903Z,66.65
2019-06-26T06:22:38.916Z,66.75
2019-06-26T06:23:38.884Z,66.02
2019-06-26T06:24:38.914Z,66.91
2019-06-26T06:25:38.895Z,67.41
2019-06-26T06:26:38.842Z,65.62
2019-06-26T06:27:38.834Z,67.01
2019-06-26T06:28:38.832Z,65.92
2019-06-26T06:29:38.822Z,65.62
2019-06-26T06:30:38.807Z,66.09
2019-06-26T06:31:38.794Z,65.30
2019-06-26T06:32:38.777Z,65.09
2019-06-26T06:33:38.771Z,65.36
2019-06-26T06:34:38.758Z,65.00
2019-06-26T06:35:38.775Z,64.07
2019-06-26T06:36:38.738Z,63.88
2019-06-26T06:37:38.725Z,64.34
2019-06-26T06:38:38.713Z,64.37
2019-06-26T06:39:38.699Z,64.04
2019-06-26T06:40:38.727Z,64.64
2019-06-26T06:41:38.676Z,63.95
2019-06-26T06:42:38.664Z,64.44
2019-06-26T06:43:38.656Z,63.95
2019-06-26T06:44:38.652Z,63.95
2019-06-26T06:45:38.641Z,64.31
2019-06-26T06:46:38.641Z,64.81
2019-06-26T06:47:38.615Z,64.41
2019-06-26T06:48:38.605Z,65.07
2019-06-26T06:49:38.593Z,63.71
2019-06-26T06:50:38.580Z,63.49
2019-06-26T06:51:38.611Z,63.59
2019-06-26T06:52:38.554Z,63.09
2019-06-26T06:53:38.541Z,63.29
2019-06-26T06:54:38.539Z,64.08
2019-06-26T06:55:38.524Z,63.68
2019-06-26T06:56:38.513Z,62.96
2019-06-26T06:57:38.507Z,63.06
2019-06-26T06:58:38.509Z,62.87
2019-06-26T06:59:38.478Z,61.65
2019-06-26T07:00:38.473Z,60.86
2019-06-26T07:01:38.457Z,61.55
2019-06-26T07:02:38.485Z,61.65
2019-06-26T07:03:38.457Z,61.16
2019-06-26T07:04:38.430Z,60.73
2019-06-26T07:05:38.411Z,61.13
2019-06-26T07:06:38.420Z,60.33
2019-06-26T07:07:38.396Z,61.00
2019-06-26T07:08:38.389Z,60.70
2019-06-26T07:09:38.377Z,59.52
2019-06-26T07:10:38.370Z,59.71
2019-06-26T07:11:38.412Z,61.79
2019-06-26T07:12:38.354Z,60.90
2019-06-26T07:13:38.323Z,60.80
2019-06-26T07:14:38.315Z,60.60
2019-06-26T07:15:38.322Z,61.16
2019-06-26T07:16:38.297Z,60.28
2019-06-26T07:17:38.298Z,59.88
2019-06-26T07:18:38.279Z,59.29
2019-06-26T07:19:38.259Z,59.69
2019-06-26T07:20:38.280Z,59.48
2019-06-26T07:21:38.239Z,59.16
2019-06-26T07:22:38.282Z,58.08
2019-06-26T07:23:38.313Z,57.49
2019-06-26T07:24:38.208Z,58.34
2019-06-26T07:25:38.199Z,58.25
2019-06-26T07:26:38.203Z,58.34
2019-06-26T07:27:38.174Z,57.65
2019-06-26T07:28:38.166Z,57.65
2019-06-26T07:29:38.152Z,57.17
2019-06-26T07:30:38.148Z,57.53
2019-06-26T07:31:38.627Z,57.23
2019-06-26T07:32:38.128Z,58.42
2019-06-26T07:33:38.114Z,58.32
2019-06-26T07:34:38.113Z,57.04
2019-06-26T07:35:38.089Z,56.62
2019-06-26T07:36:38.081Z,56.81
2019-06-26T07:37:38.077Z,57.21
2019-06-26T07:38:38.070Z,57.11
2019-06-26T07:39:38.059Z,56.29
2019-06-26T07:40:38.029Z,56.79
2019-06-26T07:41:38.037Z,56.85
2019-06-26T07:42:38.021Z,57.64
2019-06-26T07:43:38.018Z,56.07
2019-06-26T07:44:37.988Z,55.87
2019-06-26T07:45:37.982Z,56.07
2019-06-26T07:46:37.971Z,55.08
2019-06-26T07:47:43.568Z,54.79
2019-06-26T07:48:38.952Z,54.86
2019-06-26T07:49:37.931Z,54.37
2019-06-26T07:50:37.923Z,54.47
2019-06-26T07:51:37.915Z,53.98
2019-06-26T07:52:37.899Z,54.08
2019-06-26T07:53:37.903Z,55.06
2019-06-26T07:54:37.884Z,54.35
2019-06-26T07:55:40.484Z,53.75
2019-06-26T07:56:37.893Z,53.85
2019-06-26T07:57:37.853Z,53.63
2019-06-26T07:58:37.837Z,54.02
2019-06-26T07:59:37.828Z,54.02
2019-06-26T08:00:37.828Z,53.21
2019-06-26T08:01:37.807Z,53.50
2019-06-26T08:02:37.803Z,53.70
2019-06-26T08:03:37.802Z,53.60
2019-06-26T08:04:37.776Z,53.11
2019-06-26T08:05:37.776Z,52.42
2019-06-26T08:06:37.758Z,53.31
2019-06-26T08:07:37.762Z,52.20
2019-06-26T08:08:37.740Z,51.91
2019-06-26T08:09:37.723Z,52.30
2019-06-26T08:10:37.741Z,50.83
2019-06-26T08:11:37.706Z,50.83
2019-06-26T08:12:37.693Z,53.06
2019-06-26T08:13:37.685Z,51.00
2019-06-26T08:14:37.667Z,50.81
2019-06-26T08:15:37.657Z,52.06
2019-06-26T08:16:37.652Z,52.55
2019-06-26T08:17:37.634Z,50.29
2019-06-26T08:18:37.636Z,51.56
2019-06-26T08:19:37.612Z,50.56
2019-06-26T08:20:51.928Z,49.68
2019-06-26T08:21:38.598Z,48.80
2019-06-26T08:22:37.582Z,48.80
2019-06-26T08:23:37.604Z,49.09
2019-06-26T08:24:37.610Z,49.65
2019-06-26T08:25:37.545Z,50.24
2019-06-26T08:26:37.536Z,49.85
2019-06-26T08:27:37.526Z,49.16
2019-06-26T08:28:37.515Z,48.75
2019-06-26T08:29:37.508Z,48.85
2019-06-26T08:30:37.498Z,48.16
2019-06-26T08:31:37.487Z,48.07
2019-06-26T08:32:37.471Z,48.92
2019-06-26T08:33:37.464Z,48.63
2019-06-26T08:34:37.492Z,48.72
2019-06-26T08:35:37.442Z,49.11
2019-06-26T08:36:37.428Z,48.63
2019-06-26T08:37:37.418Z,47.75
2019-06-26T08:38:37.432Z,47.45
2019-06-26T08:39:37.408Z,47.92
2019-06-26T08:40:37.394Z,48.02
2019-06-26T08:41:37.393Z,47.63
2019-06-26T08:42:37.366Z,46.55
2019-06-26T08:43:37.360Z,46.55
2019-06-26T08:44:37.349Z,47.53
2019-06-26T08:45:37.335Z,48.28
2019-06-26T08:46:37.335Z,46.99
2019-06-26T08:47:37.310Z,46.41
2019-06-26T08:48:40.244Z,46.11
2019-06-26T08:49:37.301Z,46.21
2019-06-26T08:50:37.299Z,46.50
2019-06-26T08:51:37.272Z,45.92
2019-06-26T08:52:37.257Z,45.43
2019-06-26T08:53:37.247Z,45.53
2019-06-26T08:54:37.241Z,45.62
2019-06-26T08:55:37.266Z,45.61
2019-06-26T08:56:37.226Z,45.21
2019-06-26T08:57:37.230Z,45.61
2019-06-26T08:58:37.197Z,44.92
2019-06-26T08:59:37.195Z,45.70
2019-06-26T09:00:37.181Z,45.70
2019-06-26T09:01:37.487Z,44.73
2019-06-26T09:02:37.157Z,45.80
2019-06-26T09:03:37.147Z,44.73
2019-06-26T09:04:37.143Z,44.24
2019-06-26T09:05:47.637Z,44.51
2019-06-26T09:06:38.121Z,43.53
2019-06-26T09:07:37.104Z,43.92
2019-06-26T09:08:37.102Z,44.90
2019-06-26T09:09:37.085Z,44.70
2019-06-26T09:10:37.074Z,43.92
2019-06-26T09:11:37.065Z,46.07
2019-06-26T09:12:37.072Z,43.14
2019-06-26T09:13:37.038Z,45.65
2019-06-26T09:14:37.032Z,44.78
2019-06-26T09:15:37.024Z,43.71
2019-06-26T09:16:37.029Z,43.71
2019-06-26T09:17:37.037Z,43.88
2019-06-26T09:18:36.991Z,43.59
2019-06-26T09:19:36.981Z,44.46
2019-06-26T09:20:36.970Z,45.25
2019-06-26T09:21:36.969Z,43.78
2019-06-26T09:22:36.964Z,44.76
2019-06-26T09:23:36.943Z,43.10
2019-06-26T09:24:36.922Z,43.76
2019-06-26T09:25:36.913Z,43.66
2019-06-26T09:26:36.915Z,42.59
2019-06-26T09:27:36.895Z,42.76
2019-06-26T09:28:36.901Z,42.98
2019-06-26T09:29:36.886Z,42.88
2019-06-26T09:30:36.864Z,42.79
2019-06-26T09:31:36.866Z,42.59
2019-06-26T09:32:36.843Z,42.20
2019-06-26T09:33:36.855Z,42.20
2019-06-26T09:34:36.822Z,41.73
2019-06-26T09:35:36.810Z,42.59
2019-06-26T09:36:36.807Z,43.78
2019-06-26T09:37:36.790Z,42.51
2019-06-26T09:38:36.780Z,43.37
2019-06-26T09:39:36.771Z,44.05
2019-06-26T09:40:36.765Z,43.85
2019-06-26T09:41:36.747Z,43.15
2019-06-26T09:42:36.738Z,42.86
2019-06-26T09:43:36.724Z,42.66
2019-06-26T09:44:36.763Z,42.47
2019-06-26T09:45:36.719Z,42.38
2019-06-26T09:46:36.707Z,42.06
2019-06-26T09:47:36.684Z,43.13
2019-06-26T09:48:51.379Z,43.30
2019-06-26T09:49:37.710Z,42.04
2019-06-26T09:50:36.657Z,41.85
2019-06-26T09:51:36.701Z,41.85
2019-06-26T09:52:36.631Z,41.85
2019-06-26T09:53:46.729Z,40.68
2019-06-26T09:54:37.608Z,40.97
2019-06-26T09:55:36.642Z,41.44
2019-06-26T09:56:36.601Z,41.93
2019-06-26T09:57:36.581Z,41.53
2019-06-26T09:58:36.581Z,40.25
2019-06-26T09:59:36.556Z,41.80
2019-06-26T10:00:36.584Z,41.13
2019-06-26T10:01:36.537Z,41.10
2019-06-26T10:02:36.528Z,39.65
2019-06-26T10:03:36.518Z,39.72
2019-06-26T10:04:36.509Z,39.75
2019-06-26T10:05:36.491Z,41.08
2019-06-26T10:06:36.516Z,41.08
2019-06-26T10:07:36.475Z,37.39
2019-06-26T10:08:36.484Z,37.88
2019-06-26T10:09:36.455Z,37.88
2019-06-26T10:10:36.439Z,38.95
2019-06-26T10:11:36.429Z,39.14
2019-06-26T10:12:36.421Z,37.66
2019-06-26T10:13:36.407Z,37.86
2019-06-26T10:14:47.466Z,37.49
2019-06-26T10:15:37.396Z,37.39
2019-06-26T10:16:36.413Z,37.49
2019-06-26T10:17:36.371Z,37.88
2019-06-26T10:18:36.376Z,38.75
2019-06-26T10:19:36.361Z,38.27
2019-06-26T10:20:36.337Z,38.54
2019-06-26T10:21:36.373Z,39.32
2019-06-26T10:22:36.319Z,39.70
2019-06-26T10:23:36.311Z,38.81
2019-06-26T10:24:36.305Z,37.74
2019-06-26T10:25:36.288Z,37.65
2019-06-26T10:26:36.281Z,39.67
2019-06-26T10:27:36.304Z,37.26
2019-06-26T10:28:36.259Z,37.86
2019-06-26T10:29:36.247Z,38.54
2019-06-26T10:30:36.238Z,39.14
2019-06-26T10:31:36.244Z,38.87
2019-06-26T10:32:36.220Z,38.39
2019-06-26T10:33:36.221Z,39.08
2019-06-26T10:34:36.191Z,39.55
2019-06-26T10:35:36.184Z,39.43
2019-06-26T10:36:36.182Z,39.92
2019-06-26T10:37:36.163Z,38.44
2019-06-26T10:38:36.201Z,37.86
2019-06-26T10:39:36.152Z,37.84
2019-06-26T10:40:36.134Z,37.35
2019-06-26T10:41:36.128Z,39.47
2019-06-26T10:42:36.119Z,38.79
2019-06-26T10:43:36.111Z,37.24
2019-06-26T10:44:36.126Z,37.71
2019-06-26T10:45:36.396Z,36.93
2019-06-26T10:46:36.082Z,36.54
2019-06-26T10:47:39.497Z,36.16
2019-06-26T10:48:36.064Z,35.48
2019-06-26T10:49:36.066Z,36.44
2019-06-26T10:50:47.839Z,35.66
2019-06-26T10:51:37.032Z,35.46
2019-06-26T10:52:36.032Z,35.85
2019-06-26T10:53:36.020Z,36.24
2019-06-26T10:54:36.030Z,35.56
2019-06-26T10:55:36.005Z,35.44
2019-06-26T10:56:35.997Z,36.12
2019-06-26T10:57:35.979Z,36.02
2019-06-26T10:58:35.978Z,35.13
2019-06-26T10:59:35.985Z,36.00
2019-06-26T11:00:35.969Z,36.98
2019-06-26T11:01:35.946Z,33.86
2019-06-26T11:02:35.950Z,34.25
2019-06-26T11:03:35.950Z,35.33
2019-06-26T11:04:35.958Z,34.63
2019-06-26T11:05:35.938Z,35.42
2019-06-26T11:06:37.270Z,35.62
2019-06-26T11:07:36.694Z,34.65
2019-06-26T11:08:35.888Z,35.36
2019-06-26T11:09:35.879Z,35.85
2019-06-26T11:10:35.863Z,37.21
2019-06-26T11:11:35.867Z,35.85
2019-06-26T11:12:35.860Z,35.17
2019-06-26T11:13:35.902Z,35.44
2019-06-26T11:14:35.837Z,36.02
2019-06-26T11:15:35.825Z,35.23
2019-06-26T11:16:35.829Z,36.30
2019-06-26T11:17:35.818Z,35.50
2019-06-26T11:18:35.800Z,37.34
2019-06-26T11:19:43.815Z,34.73
2019-06-26T11:20:36.775Z,36.00
2019-06-26T11:21:35.777Z,35.94
2019-06-26T11:22:35.753Z,35.69
2019-06-26T11:23:35.745Z,35.90
2019-06-26T11:24:35.752Z,37.16
2019-06-26T11:25:35.735Z,36.87
2019-06-26T11:26:35.730Z,37.74
2019-06-26T11:27:35.752Z,38.23
2019-06-26T11:28:35.713Z,37.43
2019-06-26T11:29:35.696Z,38.29
2019-06-26T11:30:35.682Z,37.13
2019-06-26T11:31:35.674Z,35.85
2019-06-26T11:32:35.685Z,35.44
2019-06-26T11:33:35.651Z,35.04
2019-06-26T11:34:35.648Z,34.25
2019-06-26T11:35:35.650Z,33.37
2019-06-26T11:36:35.644Z,32.99
2019-06-26T11:37:35.719Z,32.41
2019-06-26T11:38:35.612Z,33.18
2019-06-26T11:39:35.599Z,32.68
2019-06-26T11:40:35.595Z,32.78
2019-06-26T11:41:35.583Z,32.87
2019-06-26T11:42:35.574Z,32.68
2019-06-26T11:43:35.578Z,32.59
2019-06-26T11:44:35.563Z,32.68
2019-06-26T11:45:35.552Z,32.57
2019-06-26T11:46:37.064Z,31.51
2019-06-26T11:47:35.525Z,32.65
2019-06-26T11:48:35.539Z,32.36
2019-06-26T11:49:35.513Z,32.54
2019-06-26T11:50:35.522Z,31.59
2019-06-26T11:51:35.497Z,33.04
2019-06-26T11:52:35.479Z,33.04
2019-06-26T11:53:35.488Z,34.38
2019-06-26T11:54:35.461Z,32.64
2019-06-26T11:55:35.460Z,32.24
2019-06-26T11:56:35.457Z,32.06
2019-06-26T11:57:35.446Z,32.82
2019-06-26T11:58:35.457Z,31.76
2019-06-26T11:59:35.417Z,33.89
2019-06-26T12:00:35.417Z,32.73
2019-06-26T12:01:35.401Z,33.22
2019-06-26T12:02:35.396Z,33.22
2019-06-26T12:03:35.391Z,32.54
2019-06-26T12:04:35.405Z,32.04
2019-06-26T12:05:35.384Z,32.71
2019-06-26T12:06:35.361Z,33.58
2019-06-26T12:07:35.350Z,33.39
2019-06-26T12:08:35.341Z,33.37
2019-06-26T12:09:35.341Z,32.87
2019-06-26T12:10:35.370Z,33.48
2019-06-26T12:11:35.324Z,32.73
2019-06-26T12:12:35.310Z,33.14
2019-06-26T12:13:35.299Z,34.68
2019-06-26T12:14:35.307Z,33.17
2019-06-26T12:15:35.275Z,33.18
2019-06-26T12:16:35.270Z,33.45
2019-06-26T12:17:35.277Z,33.75
2019-06-26T12:18:35.254Z,33.26
2019-06-26T12:19:35.286Z,34.33
2019-06-26T12:20:35.235Z,34.41
2019-06-26T12:21:35.226Z,35.08
2019-06-26T12:22:35.217Z,33.52
2019-06-26T12:23:35.217Z,34.39
2019-06-26T12:24:35.201Z,34.31
2019-06-26T12:25:35.212Z,34.73
2019-06-26T12:26:35.180Z,34.36
2019-06-26T12:27:35.184Z,34.27
2019-06-26T12:28:35.165Z,34.36
2019-06-26T12:29:35.155Z,34.45
2019-06-26T12:30:35.165Z,33.95
2019-06-26T12:31:35.143Z,34.91
2019-06-26T12:32:41.848Z,34.42
2019-06-26T12:33:36.118Z,34.62
2019-06-26T12:34:35.103Z,33.34
2019-06-26T12:35:35.113Z,33.04
2019-06-26T12:36:35.123Z,33.52
2019-06-26T12:37:38.040Z,32.84
2019-06-26T12:38:35.068Z,34.39
2019-06-26T12:39:35.054Z,33.50
2019-06-26T12:40:35.067Z,32.64
2019-06-26T12:41:35.073Z,33.50
2019-06-26T12:42:35.046Z,32.64
2019-06-26T12:43:35.022Z,32.65
2019-06-26T12:44:35.016Z,32.68
2019-06-26T12:45:35.018Z,33.18
2019-06-26T12:46:34.999Z,33.36
2019-06-26T12:47:34.989Z,33.17
2019-06-26T12:48:34.983Z,33.54
2019-06-26T12:49:34.968Z,34.58
2019-06-26T12:50:36.241Z,32.54
2019-06-26T12:51:34.961Z,33.00
2019-06-26T12:52:34.976Z,32.91